Springfield, CO

4:36 AM MST on February 28, 2017 (GMT -0700)
MK8V7 | | Change Station
Active Advisory: Fire Weather Warning

Elev 4388 ft 37.46 °N, 102.62 °W | Updated 49 minutes ago

Partly Cloudy
Partly Cloudy
43.0 °F
Feels Like 36 °F
N
14.0
Wind Variable Wind from South
Gusts 20.0 mph

Today
High -- | Low -- °F
--% Chance of Precip.
Yesterday
High -- | Low -- °F
Precip. -- in
Pressure 29.61 in
Visibility 10.0 miles
Clouds Clear
Windchill 36 °F
Dew Point 30 °F
Humidity 60%
Rainfall 0.00 in
Snow Depth Not available.
6:22 AM 5:43 PM
Waxing Crescent, 4% visible
METAR KLAA 281053Z AUTO 02007KT 10SM CLR M01/M07 A2965 RMK AO2 SLP025 T10061067
Pressure 29.61 in
Visibility 10.0 miles
Clouds Clear
Windchill 36 °F
Dew Point 30 °F
Humidity 60%
Rainfall 0.00 in
Snow Depth Not available.
6:22 AM 5:43 PM
Waxing Crescent, 4% visible
METAR KLAA 281053Z AUTO 02007KT 10SM CLR M01/M07 A2965 RMK AO2 SLP025 T10061067

Get Your Daily Forecast Email!

Thanks for signing up!

Be on the lookout for a verification email in your inbox.

You'll start receiving the daily forecast at 8 AM.

×

10-Day Weather Forecast

Almanac

Astronomy

Feb. 28, 2017 Rise Set
Actual Time
Civil Twilight
Nautical Twilight
Astronomical Twilight
Moon
Length of Visible Light
Length of Day
Tomorrow will be .
, % of the Moon is Illuminated

Today's Extremes

State Highs State Lows

Community

WunderPhotos

Upload Photos

1,962,540 photos uploaded!

WunderBlog® & News

Nearby

Air Quality

  Air Quality AQ Index Pollutant
Not available.

Snow Depth

Station Depth Elevation

Earthquake Activity

City Distance Mag. Time & Date
Minimum magnitude displayed is 2.5.

Coastal Water Temperatures

Place Temperature

Stations

Nearby Weather Stations

Station Location Temp. Windchill Dew Point Humidity Wind Precip. Elev Updated Type
                   

Watches & Warnings

Fire Weather Warning
Issued: 3:55 AM MST Feb. 28, 2017 – National Weather Service

... Red flag warning remains in effect from noon today to 6 PM MST
this evening for fire weather zones 229... 230... 233 and 237...

* affected area... fire weather zones 229... 230... 233 and 237.

* Winds... west 15 to 25 mph with gusts up to 40 mph.

* Relative humidity... 15 to 20 percent.

* Impacts... conditions will be favorable for the rapid ignition,
growth and spread of fires.

Precautionary/preparedness actions...

A red flag warning means that critical fire weather conditions
are either occurring now, or will shortly. A combination of
strong winds, low relative humidity, and warm temperatures can
contribute to extreme fire behavior.



Hodanish